Time,TemperatureF,DewpointF,PressureIn,WindDirection,WindDirectionDegrees,WindSpeedMPH,WindSpeedGustMPH,Humidity,HourlyPrecipIn,Conditions,Clouds,dailyrainin,SoftwareType,DateUTC
2013-03-27 00:08:00,35.2,28.0,29.96,East,92,0.0,-999.0,75,-99.99,,,0.06,weatherlink.com 1.10,2013-03-27 00:08:00,
2013-03-27 00:23:00,35.1,28.0,29.96,East,84,0.0,-999.0,74,-99.99,,,0.06,weatherlink.com 1.10,2013-03-27 00:23:00,
2013-03-27 00:38:00,35.6,26.0,29.96,ESE,108,0.0,-999.0,68,-99.99,,,0.06,weatherlink.com 1.10,2013-03-27 00:38:00,
2013-03-27 00:53:00,35.7,25.0,29.96,SE,135,0.0,-999.0,66,-99.99,,,0.06,weatherlink.com 1.10,2013-03-27 00:53:00,
2013-03-27 01:08:00,35.7,25.0,29.95,ESE,118,0.0,-999.0,66,-99.99,,,0.06,weatherlink.com 1.10,2013-03-27 01:08:00,
2013-03-27 01:23:00,35.8,25.0,29.95,East,80,0.0,-999.0,65,-99.99,,,0.06,weatherlink.com 1.10,2013-03-27 01:23:00,
2013-03-27 01:38:00,35.7,25.0,29.95,East,88,0.0,-999.0,66,-99.99,,,0.06,weatherlink.com 1.10,2013-03-27 01:38:00,
2013-03-27 01:53:00,35.3,27.0,29.96,East,95,0.0,-999.0,72,-99.99,,,0.06,weatherlink.com 1.10,2013-03-27 01:53:00,
2013-03-27 02:08:00,34.7,28.0,29.96,ESE,102,0.0,-999.0,77,-99.99,,,0.06,weatherlink.com 1.10,2013-03-27 02:08:00,
2013-03-27 02:23:00,34.0,29.0,29.95,East,82,0.0,-999.0,81,-99.99,,,0.06,weatherlink.com 1.10,2013-03-27 02:23:00,
2013-03-27 02:38:00,33.5,30.0,29.95,SSE,150,0.0,-999.0,85,-99.99,,,0.06,weatherlink.com 1.10,2013-03-27 02:38:00,
2013-03-27 02:53:00,33.4,30.0,29.95,ESE,110,0.0,-999.0,86,-99.99,,,0.06,weatherlink.com 1.10,2013-03-27 02:53:00,
2013-03-27 03:09:00,33.6,30.0,29.94,ESE,105,0.0,-999.0,86,-99.99,,,0.06,weatherlink.com 1.10,2013-03-27 03:09:00,
2013-03-27 03:24:00,33.8,30.0,29.94,East,80,0.0,-999.0,85,-99.99,,,0.06,weatherlink.com 1.10,2013-03-27 03:24:00,
2013-03-27 03:39:00,33.2,30.0,29.94,SE,130,0.0,-999.0,87,-99.99,,,0.06,weatherlink.com 1.10,2013-03-27 03:39:00,
2013-03-27 03:54:00,33.1,30.0,29.94,ESE,112,0.0,-999.0,88,-99.99,,,0.06,weatherlink.com 1.10,2013-03-27 03:54:00,
2013-03-27 04:09:00,33.4,30.0,29.94,ESE,104,0.0,-999.0,87,-99.99,,,0.06,weatherlink.com 1.10,2013-03-27 04:09:00,
2013-03-27 04:24:00,33.2,29.0,29.93,SE,140,0.0,-999.0,85,-99.99,,,0.06,weatherlink.com 1.10,2013-03-27 04:24:00,
2013-03-27 04:39:00,33.5,29.0,29.93,ESE,109,0.0,-999.0,83,-99.99,,,0.06,weatherlink.com 1.10,2013-03-27 04:39:00,
2013-03-27 04:54:00,34.0,29.0,29.93,ESE,118,0.0,-999.0,81,-99.99,,,0.06,weatherlink.com 1.10,2013-03-27 04:54:00,
2013-03-27 05:09:00,34.3,30.0,29.94,ESE,107,0.0,-999.0,83,-99.99,,,0.06,weatherlink.com 1.10,2013-03-27 05:09:00,
2013-03-27 05:24:00,33.5,30.0,29.94,ESE,119,0.0,-999.0,87,-99.99,,,0.06,weatherlink.com 1.10,2013-03-27 05:24:00,
2013-03-27 05:39:00,33.4,30.0,29.94,East,101,0.0,-999.0,88,-99.99,,,0.06,weatherlink.com 1.10,2013-03-27 05:39:00,
2013-03-27 05:54:00,33.7,31.0,29.94,East,82,0.0,-999.0,89,-99.99,,,0.06,weatherlink.com 1.10,2013-03-27 05:54:00,
2013-03-27 06:09:00,33.2,30.0,29.94,ESE,117,0.0,-999.0,88,-99.99,,,0.06,weatherlink.com 1.10,2013-03-27 06:09:00,
2013-03-27 06:24:00,32.8,30.0,29.94,ESE,104,0.0,-999.0,88,-99.99,,,0.06,weatherlink.com 1.10,2013-03-27 06:24:00,
2013-03-27 06:39:00,33.0,30.0,29.94,ESE,107,0.0,-999.0,88,-99.99,,,0.06,weatherlink.com 1.10,2013-03-27 06:39:00,
2013-03-27 06:54:00,33.7,30.0,29.94,ESE,117,0.0,-999.0,87,-99.99,,,0.06,weatherlink.com 1.10,2013-03-27 06:54:00,
2013-03-27 07:09:00,34.1,31.0,29.94,ESE,108,0.0,-999.0,87,-99.99,,,0.06,weatherlink.com 1.10,2013-03-27 07:09:00,
2013-03-27 07:24:00,33.5,31.0,29.94,NE,46,0.0,-999.0,89,-99.99,,,0.06,weatherlink.com 1.10,2013-03-27 07:24:00,
2013-03-27 07:39:00,33.2,31.0,29.94,ENE,61,0.0,-999.0,91,-99.99,,,0.06,weatherlink.com 1.10,2013-03-27 07:39:00,
2013-03-27 07:54:00,33.2,31.0,29.94,ESE,107,0.0,-999.0,91,-99.99,,,0.06,weatherlink.com 1.10,2013-03-27 07:54:00,
2013-03-27 08:09:00,33.5,31.0,29.94,ESE,120,0.0,-999.0,90,-99.99,,,0.06,weatherlink.com 1.10,2013-03-27 08:09:00,
2013-03-27 08:24:00,33.9,31.0,29.95,East,82,0.0,-999.0,89,-99.99,,,0.06,weatherlink.com 1.10,2013-03-27 08:24:00,
2013-03-27 08:39:00,33.2,30.0,29.95,East,95,0.0,-999.0,88,-99.99,,,0.06,weatherlink.com 1.10,2013-03-27 08:39:00,
2013-03-27 08:54:00,33.3,31.0,29.95,ENE,67,0.0,-999.0,90,-99.99,,,0.06,weatherlink.com 1.10,2013-03-27 08:54:00,
2013-03-27 09:09:00,33.2,31.0,29.95,ENE,63,0.0,-999.0,91,-99.99,,,0.06,weatherlink.com 1.10,2013-03-27 09:09:00,
2013-03-27 09:24:00,33.3,31.0,29.95,East,82,0.0,-999.0,92,-99.99,,,0.06,weatherlink.com 1.10,2013-03-27 09:24:00,
2013-03-27 09:39:00,33.4,31.0,29.95,East,98,0.0,-999.0,92,-99.99,,,0.06,weatherlink.com 1.10,2013-03-27 09:39:00,
2013-03-27 09:54:00,34.0,32.0,29.95,South,178,0.0,-999.0,92,-99.99,,,0.01,weatherlink.com 1.10,2013-03-27 09:54:00,
2013-03-27 10:09:00,34.7,33.0,29.95,SE,129,0.0,-999.0,92,-99.99,,,0.02,weatherlink.com 1.10,2013-03-27 10:09:00,
2013-03-27 10:24:00,35.6,33.0,29.94,ESE,107,0.0,-999.0,91,-99.99,,,0.03,weatherlink.com 1.10,2013-03-27 10:24:00,
2013-03-27 10:39:00,35.7,33.0,29.94,ESE,116,0.0,-999.0,89,-99.99,,,0.04,weatherlink.com 1.10,2013-03-27 10:39:00,
2013-03-27 10:54:00,35.8,33.0,29.95,ESE,109,0.0,-999.0,88,-99.99,,,0.05,weatherlink.com 1.10,2013-03-27 10:54:00,
2013-03-27 11:09:00,36.5,33.0,29.94,East,84,0.0,-999.0,88,-99.99,,,0.05,weatherlink.com 1.10,2013-03-27 11:09:00,
2013-03-27 11:24:00,36.7,33.0,29.94,ESE,108,0.0,-999.0,85,-99.99,,,0.06,weatherlink.com 1.10,2013-03-27 11:24:00,
2013-03-27 11:39:00,36.1,32.0,29.94,SE,140,0.0,-999.0,84,-99.99,,,0.06,weatherlink.com 1.10,2013-03-27 11:39:00,
2013-03-27 11:54:00,36.8,31.0,29.94,SE,126,0.0,-999.0,80,-99.99,,,0.06,weatherlink.com 1.10,2013-03-27 11:54:00,
2013-03-27 12:09:00,36.8,31.0,29.95,ESE,115,0.0,-999.0,79,-99.99,,,0.07,weatherlink.com 1.10,2013-03-27 12:09:00,
2013-03-27 12:24:00,36.1,32.0,29.94,ENE,70,0.0,-999.0,84,-99.99,,,0.07,weatherlink.com 1.10,2013-03-27 12:24:00,
2013-03-27 12:39:00,35.2,31.0,29.95,East,85,0.0,-999.0,83,-99.99,,,0.08,weatherlink.com 1.10,2013-03-27 12:39:00,
2013-03-27 12:54:00,35.0,32.0,29.94,ENE,65,0.0,-999.0,87,-99.99,,,0.08,weatherlink.com 1.10,2013-03-27 12:54:00,
2013-03-27 13:09:00,35.6,32.0,29.94,NE,51,0.0,-999.0,86,-99.99,,,0.09,weatherlink.com 1.10,2013-03-27 13:09:00,
2013-03-27 13:24:00,36.5,32.0,29.93,ESE,112,0.0,-999.0,84,-99.99,,,0.09,weatherlink.com 1.10,2013-03-27 13:24:00,
2013-03-27 13:39:00,37.3,33.0,29.93,ESE,104,0.0,-999.0,83,-99.99,,,0.09,weatherlink.com 1.10,2013-03-27 13:39:00,
2013-03-27 13:54:00,38.4,33.0,29.94,ESE,113,0.0,-999.0,80,-99.99,,,0.09,weatherlink.com 1.10,2013-03-27 13:54:00,
2013-03-27 14:09:00,37.2,32.0,29.95,ESE,112,0.0,-999.0,82,-99.99,,,0.10,weatherlink.com 1.10,2013-03-27 14:09:00,
2013-03-27 14:24:00,35.3,32.0,29.94,ENE,61,0.0,-999.0,87,-99.99,,,0.10,weatherlink.com 1.10,2013-03-27 14:24:00,
2013-03-27 14:39:00,35.8,33.0,29.93,ENE,63,0.0,-999.0,89,-99.99,,,0.11,weatherlink.com 1.10,2013-03-27 14:39:00,
2013-03-27 14:54:00,37.5,34.0,29.93,ENE,64,0.0,-999.0,86,-99.99,,,0.11,weatherlink.com 1.10,2013-03-27 14:54:00,
2013-03-27 15:09:00,36.8,32.0,29.93,NE,51,0.0,-999.0,83,-99.99,,,0.11,weatherlink.com 1.10,2013-03-27 15:09:00,
2013-03-27 15:24:00,35.9,32.0,29.93,East,98,0.0,-999.0,84,-99.99,,,0.11,weatherlink.com 1.10,2013-03-27 15:24:00,
2013-03-27 15:39:00,37.1,32.0,29.93,ENE,61,0.0,-999.0,82,-99.99,,,0.11,weatherlink.com 1.10,2013-03-27 15:39:00,
2013-03-27 15:54:00,37.5,31.0,29.94,NE,55,0.0,-999.0,76,-99.99,,,0.11,weatherlink.com 1.10,2013-03-27 15:54:00,
2013-03-27 16:09:00,37.3,31.0,29.94,ENE,70,0.0,-999.0,79,-99.99,,,0.11,weatherlink.com 1.10,2013-03-27 16:09:00,
2013-03-27 16:24:00,37.2,31.0,29.94,ENE,66,0.0,-999.0,78,-99.99,,,0.11,weatherlink.com 1.10,2013-03-27 16:24:00,
2013-03-27 16:39:00,37.5,31.0,29.94,ENE,75,0.0,-999.0,78,-99.99,,,0.11,weatherlink.com 1.10,2013-03-27 16:39:00,
2013-03-27 16:54:00,38.3,32.0,29.94,East,94,0.0,-999.0,77,-99.99,,,0.11,weatherlink.com 1.10,2013-03-27 16:54:00,
2013-03-27 17:09:00,38.4,30.0,29.93,ESE,113,0.0,-999.0,71,-99.99,,,0.11,weatherlink.com 1.10,2013-03-27 17:09:00,
2013-03-27 17:25:00,38.8,29.0,29.93,ESE,107,0.0,-999.0,69,-99.99,,,0.11,weatherlink.com 1.10,2013-03-27 17:25:00,
2013-03-27 17:40:00,38.8,30.0,29.93,NE,56,0.0,-999.0,70,-99.99,,,0.11,weatherlink.com 1.10,2013-03-27 17:40:00,
2013-03-27 17:55:00,38.6,29.0,29.94,NE,42,0.0,-999.0,69,-99.99,,,0.11,weatherlink.com 1.10,2013-03-27 17:55:00,
2013-03-27 18:10:00,38.8,29.0,29.94,ENE,65,0.0,-999.0,69,-99.99,,,0.11,weatherlink.com 1.10,2013-03-27 18:10:00,
2013-03-27 18:25:00,38.7,30.0,29.94,ESE,113,0.0,-999.0,71,-99.99,,,0.11,weatherlink.com 1.10,2013-03-27 18:25:00,
2013-03-27 18:40:00,37.9,31.0,29.94,ESE,112,0.0,-999.0,75,-99.99,,,0.11,weatherlink.com 1.10,2013-03-27 18:40:00,
2013-03-27 18:55:00,37.5,30.0,29.94,East,96,0.0,-999.0,75,-99.99,,,0.11,weatherlink.com 1.10,2013-03-27 18:55:00,
2013-03-27 19:10:00,37.5,31.0,29.94,SE,142,0.0,-999.0,78,-99.99,,,0.11,weatherlink.com 1.10,2013-03-27 19:10:00,
2013-03-27 19:25:00,37.1,31.0,29.95,ENE,67,0.0,-999.0,77,-99.99,,,0.11,weatherlink.com 1.10,2013-03-27 19:25:00,
2013-03-27 19:40:00,36.7,30.0,29.95,ESE,103,0.0,-999.0,77,-99.99,,,0.11,weatherlink.com 1.10,2013-03-27 19:40:00,
2013-03-27 19:55:00,36.2,30.0,29.95,East,88,0.0,-999.0,78,-99.99,,,0.11,weatherlink.com 1.10,2013-03-27 19:55:00,
2013-03-27 20:10:00,36.2,30.0,29.95,ESE,120,0.0,-999.0,77,-99.99,,,0.11,weatherlink.com 1.10,2013-03-27 20:10:00,
2013-03-27 20:25:00,36.3,30.0,29.95,ESE,104,0.0,-999.0,77,-99.99,,,0.11,weatherlink.com 1.10,2013-03-27 20:25:00,
2013-03-27 20:40:00,36.5,30.0,29.95,East,93,0.0,-999.0,78,-99.99,,,0.11,weatherlink.com 1.10,2013-03-27 20:40:00,
2013-03-27 20:55:00,36.2,30.0,29.95,ESE,107,0.0,-999.0,78,-99.99,,,0.11,weatherlink.com 1.10,2013-03-27 20:55:00,
2013-03-27 21:10:00,35.6,30.0,29.94,ENE,69,0.0,-999.0,81,-99.99,,,0.11,weatherlink.com 1.10,2013-03-27 21:10:00,
2013-03-27 21:25:00,36.2,30.0,29.94,ESE,111,0.0,-999.0,78,-99.99,,,0.11,weatherlink.com 1.10,2013-03-27 21:25:00,
2013-03-27 21:40:00,36.6,30.0,29.94,East,92,0.0,-999.0,77,-99.99,,,0.11,weatherlink.com 1.10,2013-03-27 21:40:00,
2013-03-27 21:55:00,36.7,29.0,29.94,ESE,109,0.0,-999.0,75,-99.99,,,0.11,weatherlink.com 1.10,2013-03-27 21:55:00,
2013-03-27 22:10:00,36.0,31.0,29.94,ESE,109,0.0,-999.0,83,-99.99,,,0.11,weatherlink.com 1.10,2013-03-27 22:10:00,
2013-03-27 22:25:00,35.0,31.0,29.94,East,98,0.0,-999.0,85,-99.99,,,0.11,weatherlink.com 1.10,2013-03-27 22:25:00,
2013-03-27 22:40:00,34.7,31.0,29.94,SE,131,0.0,-999.0,87,-99.99,,,0.11,weatherlink.com 1.10,2013-03-27 22:40:00,
2013-03-27 22:55:00,34.1,31.0,29.95,NE,54,0.0,-999.0,88,-99.99,,,0.11,weatherlink.com 1.10,2013-03-27 22:55:00,
2013-03-27 23:10:00,33.7,31.0,29.94,East,98,0.0,-999.0,90,-99.99,,,0.11,weatherlink.com 1.10,2013-03-27 23:10:00,
2013-03-27 23:25:00,33.6,31.0,29.94,SE,127,0.0,-999.0,91,-99.99,,,0.11,weatherlink.com 1.10,2013-03-27 23:25:00,
2013-03-27 23:40:00,33.7,31.0,29.93,ENE,59,0.0,-999.0,91,-99.99,,,0.11,weatherlink.com 1.10,2013-03-27 23:40:00,
2013-03-27 23:55:00,33.8,31.0,29.95,ESE,115,0.0,-999.0,89,-99.99,,,0.11,weatherlink.com 1.10,2013-03-27 23:55:00,